Time;durP1;ratioP1;P1;durP2;ratioP2;P2;SDS_P1;SDS_P2;PMS_P1;PMS_P2;Temp;Humidity;BMP_temperature;BMP_pressure;BME280_temperature;BME280_humidity;BME280_pressure;Samples;Min_cycle;Max_cycle;Signal;HPM_P1;HPM_P2
2023/03/05 00:01:32;;;;;;;0.10;0.10;;;3.00;99.90;230.40;231737.00;;;;5035073;28;20202;-74
2023/03/05 00:04:02;;;;;;;0.10;0.10;;;2.90;99.90;230.40;231737.00;;;;5033332;28;20265;-73
2023/03/05 00:06:33;;;;;;;0.10;0.10;;;2.80;99.90;230.40;231737.00;;;;5028999;28;20241;-73
2023/03/05 00:09:02;;;;;;;0.10;0.10;;;2.80;99.90;230.40;231737.00;;;;5031403;28;20288;-73
2023/03/05 00:11:32;;;;;;;0.10;0.10;;;2.80;99.90;230.40;231737.00;;;;5023998;28;20249;-73
2023/03/05 00:14:03;;;;;;;0.10;0.10;;;2.80;99.90;230.40;231737.00;;;;5030385;28;20249;-72
2023/03/05 00:16:32;;;;;;;0.10;0.10;;;2.70;99.90;230.40;231737.00;;;;5028865;28;20604;-72
2023/03/05 00:19:01;;;;;;;0.10;0.10;;;2.70;99.90;230.40;231737.00;;;;5033704;28;21057;-73
2023/03/05 00:21:33;;;;;;;0.15;0.15;;;2.70;99.90;230.40;231737.00;;;;5034117;28;20191;-73
2023/03/05 00:24:05;;;;;;;0.10;0.10;;;2.70;99.90;230.40;231737.00;;;;5031793;28;20281;-73
2023/03/05 00:26:37;;;;;;;0.10;0.10;;;2.70;99.90;230.40;231737.00;;;;5034259;28;20195;-73
2023/03/05 00:29:07;;;;;;;0.10;0.10;;;2.70;99.90;230.40;231737.00;;;;5031723;28;20226;-72
2023/03/05 00:31:37;;;;;;;0.10;0.10;;;2.70;99.90;230.40;231737.00;;;;5030231;28;20206;-72
2023/03/05 00:34:10;;;;;;;0.10;0.10;;;2.70;99.90;230.40;231737.00;;;;5033705;28;20199;-73
2023/03/05 00:36:42;;;;;;;0.10;0.10;;;2.70;99.90;230.40;231737.00;;;;5029058;28;20234;-71
2023/03/05 00:39:11;;;;;;;0.10;0.10;;;2.70;99.90;230.40;231737.00;;;;5028137;28;20214;-72
2023/03/05 00:41:40;;;;;;;0.10;0.10;;;2.70;99.90;230.40;231737.00;;;;5030329;28;20629;-72
2023/03/05 00:44:08;;;;;;;0.10;0.10;;;2.70;99.90;230.40;231737.00;;;;5031551;28;20249;-73
2023/03/05 00:46:36;;;;;;;0.10;0.10;;;2.70;99.90;230.40;231737.00;;;;5036907;28;20214;-72
2023/03/05 00:49:04;;;;;;;0.10;0.10;;;2.70;99.90;230.40;231737.00;;;;5039284;28;20252;-73
2023/03/05 00:51:33;;;;;;;0.10;0.10;;;2.70;99.90;230.40;231737.00;;;;5034247;28;20274;-73
2023/03/05 00:54:03;;;;;;;0.10;0.10;;;2.60;99.90;230.40;231737.00;;;;5030022;28;20225;-73
2023/03/05 00:56:31;;;;;;;0.10;0.10;;;2.60;99.90;230.40;231737.00;;;;5032600;28;20667;-73
2023/03/05 00:59:00;;;;;;;0.10;0.10;;;2.60;99.90;230.40;231737.00;;;;5031982;28;20285;-74
2023/03/05 01:01:28;;;;;;;0.10;0.10;;;2.60;99.90;230.40;231737.00;;;;5027300;28;20563;-73
2023/03/05 01:03:58;;;;;;;0.10;0.10;;;2.60;99.90;230.40;231737.00;;;;5033443;28;20206;-73
2023/03/05 01:06:27;;;;;;;0.10;0.10;;;2.60;99.90;230.40;231737.00;;;;5032189;28;20210;-73
2023/03/05 01:08:56;;;;;;;0.10;0.10;;;2.60;99.90;230.40;231737.00;;;;5030730;28;20231;-73
2023/03/05 01:11:26;;;;;;;0.10;0.10;;;2.70;99.90;230.40;231737.00;;;;5034170;28;20564;-73
2023/03/05 01:13:53;;;;;;;0.10;0.10;;;2.70;99.90;230.40;231737.00;;;;5034310;28;20192;-75
2023/03/05 01:16:22;;;;;;;0.10;0.10;;;2.60;99.90;230.40;231737.00;;;;5026249;28;20230;-73
2023/03/05 01:18:50;;;;;;;0.10;0.10;;;2.70;99.90;230.40;231737.00;;;;5028018;28;20218;-73
2023/03/05 01:21:18;;;;;;;0.10;0.10;;;2.60;99.90;230.40;231737.00;;;;5033475;28;20207;-74
2023/03/05 01:23:46;;;;;;;0.10;0.10;;;2.60;99.90;230.40;231737.00;;;;5027288;28;20202;-73
2023/03/05 01:26:14;;;;;;;0.10;0.10;;;2.60;99.90;230.40;231737.00;;;;5027942;28;20253;-73
2023/03/05 01:28:43;;;;;;;0.10;0.10;;;2.60;99.90;230.40;231737.00;;;;5028382;28;20269;-73
2023/03/05 01:31:11;;;;;;;0.10;0.10;;;2.60;99.90;230.40;231737.00;;;;5030787;28;20570;-74
2023/03/05 01:33:40;;;;;;;0.10;0.10;;;2.60;99.90;230.40;231737.00;;;;5028408;28;20198;-73
2023/03/05 01:36:12;;;;;;;0.10;0.10;;;2.70;99.90;230.40;231737.00;;;;5031840;28;20207;-73
2023/03/05 01:38:40;;;;;;;0.10;0.10;;;2.70;99.90;230.40;231737.00;;;;5040275;28;20245;-74
2023/03/05 01:41:10;;;;;;;0.10;0.10;;;2.70;99.90;230.40;231737.00;;;;5047517;28;20221;-73
2023/03/05 01:43:38;;;;;;;0.10;0.10;;;2.70;99.90;230.40;231737.00;;;;5027121;28;20227;-73
2023/03/05 01:46:35;;;;;;;0.10;0.10;;;2.60;99.90;230.40;231737.00;;;;5042521;28;20202;-74
2023/03/05 01:49:15;;;;;;;0.10;0.10;;;2.70;99.90;230.40;231737.00;;;;5030449;28;20643;-74
2023/03/05 01:51:53;;;;;;;0.10;0.10;;;2.60;99.90;230.40;231737.00;;;;5023656;28;20602;-74
2023/03/05 01:54:26;;;;;;;0.10;0.10;;;2.50;99.90;230.40;231737.00;;;;5028166;28;20213;-73
2023/03/05 01:56:57;;;;;;;0.10;0.10;;;2.50;99.90;230.40;231737.00;;;;5030524;28;20253;-73
2023/03/05 01:59:27;;;;;;;0.10;0.10;;;2.40;99.90;230.40;231737.00;;;;5028305;28;20219;-73
2023/03/05 02:01:59;;;;;;;0.10;0.10;;;2.40;99.90;230.40;231737.00;;;;5032181;28;20682;-74
2023/03/05 02:04:37;;;;;;;0.10;0.10;;;2.40;99.90;230.40;231737.00;;;;5030041;28;20213;-71
2023/03/05 02:07:07;;;;;;;0.10;0.10;;;2.40;99.90;230.40;231737.00;;;;5029727;28;20210;-71
2023/03/05 02:09:38;;;;;;;0.10;0.10;;;2.40;99.90;230.40;231737.00;;;;5031072;28;20218;-71
2023/03/05 02:12:08;;;;;;;0.10;0.10;;;2.60;99.90;230.40;231737.00;;;;5027108;28;20604;-70
2023/03/05 02:14:37;;;;;;;0.10;0.10;;;2.50;99.90;230.40;231737.00;;;;5023925;28;20694;-71
2023/03/05 02:17:08;;;;;;;0.10;0.10;;;2.50;99.90;230.40;231737.00;;;;5035229;28;20210;-71
2023/03/05 02:19:49;;;;;;;0.10;0.10;;;2.60;99.90;230.40;231737.00;;;;5026713;28;20227;-71
2023/03/05 02:22:22;;;;;;;0.10;0.10;;;2.50;99.90;230.40;231737.00;;;;5030433;28;20257;-71
2023/03/05 02:24:51;;;;;;;0.10;0.10;;;2.50;99.90;230.40;231737.00;;;;5022353;28;20203;-71
2023/03/05 02:27:26;;;;;;;0.10;0.10;;;2.50;99.90;230.40;231737.00;;;;5029542;28;20682;-71
2023/03/05 02:29:54;;;;;;;0.10;0.10;;;2.40;99.90;230.40;231737.00;;;;5042287;28;20253;-71
2023/03/05 02:32:22;;;;;;;0.10;0.10;;;2.40;99.90;230.40;231737.00;;;;5030457;28;20249;-72
2023/03/05 02:34:50;;;;;;;0.10;0.10;;;2.40;99.90;230.40;231737.00;;;;5029579;28;20754;-73
2023/03/05 02:37:20;;;;;;;0.10;0.10;;;2.30;99.90;230.40;231737.00;;;;5030204;28;20297;-72
2023/03/05 02:39:48;;;;;;;0.10;0.10;;;2.40;99.90;230.40;231737.00;;;;5029134;28;20219;-73
2023/03/05 02:42:16;;;;;;;0.10;0.10;;;2.40;99.90;230.40;231737.00;;;;5031977;28;20206;-72
2023/03/05 02:44:44;;;;;;;0.10;0.10;;;2.50;99.90;230.40;231737.00;;;;5036407;28;20209;-72
2023/03/05 02:47:12;;;;;;;0.10;0.10;;;2.40;99.90;230.40;231737.00;;;;5028089;28;20191;-72
2023/03/05 02:49:40;;;;;;;0.10;0.10;;;2.40;99.90;230.40;231737.00;;;;5027469;28;20229;-72
2023/03/05 02:52:08;;;;;;;0.10;0.10;;;2.50;99.90;230.40;231737.00;;;;5030744;28;20253;-72
2023/03/05 02:54:37;;;;;;;0.10;0.10;;;2.40;99.90;230.40;231737.00;;;;5026383;28;20201;-71
2023/03/05 02:57:05;;;;;;;0.10;0.10;;;2.30;99.90;230.40;231737.00;;;;5030229;28;20249;-73
2023/03/05 02:59:33;;;;;;;0.10;0.10;;;2.30;99.90;230.40;231737.00;;;;5021251;28;20595;-71
2023/03/05 03:02:02;;;;;;;0.10;0.10;;;2.40;99.90;230.40;231737.00;;;;5023529;28;20618;-71
2023/03/05 03:04:29;;;;;;;0.10;0.10;;;2.40;99.90;230.40;231737.00;;;;5045249;28;20203;-71
2023/03/05 03:06:58;;;;;;;0.10;0.10;;;2.30;99.90;230.40;231737.00;;;;5028440;28;20227;-72
2023/03/05 03:09:26;;;;;;;0.10;0.10;;;2.30;99.90;230.40;231737.00;;;;5029707;28;20277;-71
2023/03/05 03:11:55;;;;;;;0.10;0.10;;;2.40;99.90;230.40;231737.00;;;;5033081;28;20249;-72
2023/03/05 03:14:23;;;;;;;0.10;0.10;;;2.30;99.90;230.40;231737.00;;;;5027494;28;20549;-72
2023/03/05 03:16:51;;;;;;;0.10;0.10;;;2.50;99.90;230.40;231737.00;;;;5020804;28;20192;-71
2023/03/05 03:19:19;;;;;;;0.10;0.10;;;2.50;99.90;230.40;231737.00;;;;5031436;28;20249;-71
2023/03/05 03:21:48;;;;;;;0.10;0.10;;;2.30;99.90;230.40;231737.00;;;;5030413;28;20207;-72
2023/03/05 03:24:16;;;;;;;0.10;0.10;;;2.30;99.90;230.40;231737.00;;;;5031246;28;20199;-71
2023/03/05 03:26:45;;;;;;;0.10;0.10;;;2.30;99.90;230.40;231737.00;;;;5030762;28;20607;-71
2023/03/05 03:29:14;;;;;;;0.10;0.10;;;2.30;99.90;230.40;231737.00;;;;5028240;28;20709;-72
2023/03/05 03:31:43;;;;;;;0.10;0.10;;;2.30;99.90;230.40;231737.00;;;;5027503;28;20203;-74
2023/03/05 03:34:12;;;;;;;0.10;0.10;;;2.20;99.90;230.40;231737.00;;;;5031103;28;20226;-72
2023/03/05 03:36:39;;;;;;;0.10;0.10;;;2.30;99.90;230.40;231737.00;;;;5026001;28;20241;-72
2023/03/05 03:39:09;;;;;;;0.10;0.10;;;2.30;99.90;230.40;231737.00;;;;5030615;28;20733;-71
2023/03/05 03:41:40;;;;;;;0.10;0.10;;;2.30;99.90;230.40;231737.00;;;;5031209;28;20732;-72
2023/03/05 03:44:09;;;;;;;0.10;0.10;;;2.20;99.90;230.40;231737.00;;;;5030869;28;20279;-72
2023/03/05 03:46:39;;;;;;;0.10;0.10;;;2.20;99.90;230.40;231737.00;;;;5026795;28;20282;-74
2023/03/05 03:49:08;;;;;;;0.10;0.10;;;2.30;99.90;230.40;231737.00;;;;5027806;28;20269;-74
2023/03/05 03:51:36;;;;;;;0.10;0.10;;;2.30;99.90;230.40;231737.00;;;;5027624;28;20204;-73
2023/03/05 03:54:04;;;;;;;0.10;0.10;;;2.20;99.90;230.40;231737.00;;;;5023570;28;20253;-73
2023/03/05 03:56:32;;;;;;;0.10;0.10;;;2.30;99.90;230.40;231737.00;;;;5025872;28;20211;-74
2023/03/05 03:59:00;;;;;;;0.10;0.10;;;2.30;99.90;230.40;231737.00;;;;5026833;28;20721;-75
2023/03/05 04:01:28;;;;;;;0.20;0.20;;;2.20;99.90;230.40;231737.00;;;;5030253;28;20670;-74
2023/03/05 04:03:57;;;;;;;0.10;0.10;;;2.20;99.90;230.40;231737.00;;;;5030454;28;20604;-74
2023/03/05 04:06:25;;;;;;;0.10;0.10;;;2.20;99.90;230.40;231737.00;;;;5027190;28;20199;-74
2023/03/05 04:08:53;;;;;;;0.10;0.10;;;2.20;99.90;230.40;231737.00;;;;5029999;28;20219;-72
2023/03/05 04:11:21;;;;;;;0.10;0.10;;;2.30;99.90;230.40;231737.00;;;;5030629;28;20253;-72
2023/03/05 04:13:50;;;;;;;0.10;0.10;;;2.20;99.90;230.40;231737.00;;;;5030072;28;20275;-71
2023/03/05 04:16:19;;;;;;;0.10;0.10;;;2.20;99.90;230.40;231737.00;;;;5027803;28;20677;-73
2023/03/05 04:18:47;;;;;;;0.10;0.10;;;2.20;99.90;230.40;231737.00;;;;5028090;28;20268;-75
2023/03/05 04:21:16;;;;;;;0.10;0.10;;;2.20;99.90;230.40;231737.00;;;;5029091;28;20196;-74
2023/03/05 04:23:45;;;;;;;0.10;0.10;;;2.20;99.90;230.40;231737.00;;;;5026341;28;20584;-71
2023/03/05 04:26:13;;;;;;;0.10;0.10;;;2.20;99.90;230.40;231737.00;;;;5025951;28;20206;-71
2023/03/05 04:28:41;;;;;;;0.10;0.10;;;2.10;99.90;230.40;231737.00;;;;5033241;28;20261;-71
2023/03/05 04:31:08;;;;;;;0.10;0.10;;;2.10;99.90;230.40;231737.00;;;;5034062;28;20203;-71
2023/03/05 04:33:36;;;;;;;0.10;0.10;;;2.00;99.90;230.40;231737.00;;;;5034119;28;20693;-71
2023/03/05 04:36:06;;;;;;;0.10;0.10;;;2.00;99.90;230.40;231737.00;;;;5028606;28;20203;-72
2023/03/05 04:38:35;;;;;;;0.10;0.10;;;2.00;99.90;230.40;231737.00;;;;5031259;28;20206;-72
2023/03/05 04:41:04;;;;;;;0.10;0.10;;;2.00;99.90;230.40;231737.00;;;;5033734;28;20678;-71
2023/03/05 04:43:32;;;;;;;0.10;0.10;;;2.00;99.90;230.40;231737.00;;;;5030104;28;20199;-72
2023/03/05 04:46:00;;;;;;;0.10;0.10;;;2.00;99.90;230.40;231737.00;;;;5032666;28;20214;-71
2023/03/05 04:48:27;;;;;;;0.10;0.10;;;2.00;99.90;230.40;231737.00;;;;5033014;28;20195;-71
2023/03/05 04:50:56;;;;;;;0.10;0.10;;;2.00;99.90;230.40;231737.00;;;;5033774;28;20234;-71
2023/03/05 04:53:25;;;;;;;0.10;0.10;;;2.00;99.90;230.40;231737.00;;;;5029779;28;20604;-72
2023/03/05 04:55:55;;;;;;;0.10;0.10;;;2.10;99.90;230.40;231737.00;;;;5033242;28;20203;-71
2023/03/05 04:58:23;;;;;;;0.10;0.10;;;2.00;99.90;230.40;231737.00;;;;5023491;28;20686;-71
2023/03/05 05:00:51;;;;;;;0.10;0.10;;;2.00;99.90;230.40;231737.00;;;;5030156;28;20217;-70
2023/03/05 05:03:19;;;;;;;0.10;0.10;;;2.00;99.90;230.40;231737.00;;;;5033787;28;20602;-70
2023/03/05 05:05:55;;;;;;;0.10;0.10;;;2.00;99.90;230.40;231737.00;;;;5029985;28;20226;-71
2023/03/05 05:08:24;;;;;;;0.10;0.10;;;1.90;99.90;230.40;231737.00;;;;5029490;28;20198;-71
2023/03/05 05:11:01;;;;;;;0.10;0.10;;;1.80;99.90;230.40;231737.00;;;;5032920;28;20223;-70
2023/03/05 05:13:30;;;;;;;0.10;0.10;;;1.80;99.90;230.40;231737.00;;;;5032852;28;20195;-71
2023/03/05 05:15:58;;;;;;;0.10;0.10;;;1.80;99.90;230.40;231737.00;;;;5032635;28;20226;-70
2023/03/05 05:18:26;;;;;;;0.10;0.10;;;1.80;99.90;230.40;231737.00;;;;5027466;28;20207;-70
2023/03/05 05:20:54;;;;;;;0.10;0.10;;;1.80;99.90;230.40;231737.00;;;;5032866;28;20273;-70
2023/03/05 05:23:23;;;;;;;0.10;0.10;;;1.80;99.90;230.40;231737.00;;;;5031479;28;20202;-71
2023/03/05 05:26:00;;;;;;;0.10;0.10;;;1.90;99.90;230.40;231737.00;;;;5032386;28;20681;-71
2023/03/05 05:28:28;;;;;;;0.10;0.10;;;1.80;99.90;230.40;231737.00;;;;5027805;28;20219;-71
2023/03/05 05:30:57;;;;;;;0.10;0.10;;;1.90;99.90;230.40;231737.00;;;;5030043;28;20290;-73
2023/03/05 05:33:26;;;;;;;0.10;0.10;;;1.90;99.90;230.40;231737.00;;;;5033383;28;20269;-72
2023/03/05 05:35:54;;;;;;;0.10;0.10;;;1.90;99.90;230.40;231737.00;;;;5032855;28;20618;-70
2023/03/05 05:38:22;;;;;;;0.10;0.10;;;1.90;99.90;230.40;231737.00;;;;5026069;28;21338;-70
2023/03/05 05:40:50;;;;;;;0.10;0.10;;;2.00;99.90;230.40;231737.00;;;;5033125;28;20215;-70
2023/03/05 05:43:19;;;;;;;0.10;0.10;;;1.90;99.90;230.40;231737.00;;;;5033101;28;20686;-70
2023/03/05 05:45:47;;;;;;;0.10;0.10;;;1.90;99.90;230.40;231737.00;;;;5032668;28;20190;-69
2023/03/05 05:48:15;;;;;;;0.10;0.10;;;1.90;99.90;230.40;231737.00;;;;5027633;28;20207;-69
2023/03/05 05:50:43;;;;;;;0.10;0.10;;;1.90;99.90;230.40;231737.00;;;;5032682;28;20322;-70
2023/03/05 05:53:11;;;;;;;0.10;0.10;;;1.80;99.90;230.40;231737.00;;;;5032390;28;20199;-72
2023/03/05 05:55:40;;;;;;;0.10;0.10;;;1.90;99.90;230.40;231737.00;;;;5032983;28;20245;-73
2023/03/05 05:58:08;;;;;;;0.10;0.10;;;1.90;99.90;230.40;231737.00;;;;5030985;28;20252;-71
2023/03/05 06:00:37;;;;;;;0.10;0.10;;;1.90;99.90;230.40;231737.00;;;;5031902;28;20233;-72
2023/03/05 06:03:06;;;;;;;0.10;0.10;;;1.90;99.90;230.40;231737.00;;;;5046998;28;20204;-72
2023/03/05 06:05:35;;;;;;;0.20;0.20;;;1.90;99.90;230.40;231737.00;;;;5024894;28;20290;-73
2023/03/05 06:08:03;;;;;;;0.10;0.10;;;1.90;99.90;230.40;231737.00;;;;5043520;28;20243;-71
2023/03/05 06:10:31;;;;;;;0.10;0.10;;;1.90;99.90;230.40;231737.00;;;;5028467;28;20222;-72
2023/03/05 06:12:59;;;;;;;0.10;0.10;;;1.90;99.90;230.40;231737.00;;;;5030629;28;20207;-72
2023/03/05 06:15:27;;;;;;;0.10;0.10;;;1.90;99.90;230.40;231737.00;;;;5029946;28;20228;-71
2023/03/05 06:17:56;;;;;;;0.10;0.10;;;1.90;99.90;230.40;231737.00;;;;5028712;28;20678;-72
2023/03/05 06:20:24;;;;;;;0.10;0.10;;;1.90;99.90;230.40;231737.00;;;;5020476;28;20214;-72
2023/03/05 06:22:52;;;;;;;0.10;0.10;;;1.90;99.90;230.40;231737.00;;;;5027569;28;20546;-72
2023/03/05 06:25:20;;;;;;;0.10;0.10;;;1.90;99.90;230.40;231737.00;;;;5029231;28;20593;-72
2023/03/05 06:27:48;;;;;;;0.10;0.10;;;1.90;99.90;230.40;231737.00;;;;5031384;28;20194;-71
2023/03/05 06:30:16;;;;;;;0.10;0.10;;;1.90;99.90;230.40;231737.00;;;;5029524;28;20215;-72
2023/03/05 06:32:44;;;;;;;0.10;0.10;;;1.90;99.90;230.40;231737.00;;;;5022562;28;20195;-71
2023/03/05 06:35:13;;;;;;;0.10;0.10;;;1.90;99.90;230.40;231737.00;;;;5030127;28;20195;-71
2023/03/05 06:37:41;;;;;;;0.10;0.10;;;1.90;99.90;230.40;231737.00;;;;5027400;28;20619;-73
2023/03/05 06:40:11;;;;;;;0.10;0.10;;;1.90;99.90;230.40;231737.00;;;;5029457;28;20238;-72
2023/03/05 06:42:39;;;;;;;0.10;0.10;;;1.90;99.90;230.40;231737.00;;;;5030348;28;20203;-72
2023/03/05 06:45:09;;;;;;;0.10;0.10;;;1.90;99.90;230.40;231737.00;;;;5031770;28;20206;-73
2023/03/05 06:47:37;;;;;;;0.10;0.10;;;1.90;99.90;230.40;231737.00;;;;5031177;28;20607;-72
2023/03/05 06:50:06;;;;;;;0.10;0.10;;;1.90;99.90;230.40;231737.00;;;;5049585;22;20307;-75
2023/03/05 06:52:37;;;;;;;0.10;0.10;;;1.90;99.90;230.40;231737.00;;;;5020610;28;20257;-74
2023/03/05 06:55:06;;;;;;;0.10;0.10;;;1.90;99.90;230.40;231737.00;;;;5020220;28;20199;-75
2023/03/05 06:57:34;;;;;;;0.10;0.10;;;1.90;99.90;230.40;231737.00;;;;5018512;28;20203;-74
2023/03/05 07:00:02;;;;;;;0.10;0.10;;;2.00;99.90;230.40;231737.00;;;;5025501;28;20210;-75
2023/03/05 07:02:31;;;;;;;0.10;0.10;;;1.90;99.90;230.40;231737.00;;;;5013063;28;20670;-75
2023/03/05 07:04:59;;;;;;;0.10;0.10;;;1.90;99.90;230.40;231737.00;;;;5010988;28;20203;-75
2023/03/05 07:07:27;;;;;;;0.10;0.10;;;2.00;99.90;230.40;231737.00;;;;5016127;28;20206;-74
2023/03/05 07:09:57;;;;;;;0.10;0.10;;;1.90;99.90;230.40;231737.00;;;;5013054;28;20223;-75
2023/03/05 07:12:25;;;;;;;0.10;0.10;;;1.90;99.90;230.40;231737.00;;;;5004866;28;20278;-75
2023/03/05 07:14:53;;;;;;;0.10;0.10;;;1.90;99.90;230.40;231737.00;;;;5006199;28;20269;-74
2023/03/05 07:17:21;;;;;;;0.10;0.10;;;1.90;99.90;230.40;231737.00;;;;5006316;28;20250;-75
2023/03/05 07:19:49;;;;;;;0.10;0.10;;;1.90;99.90;230.40;231737.00;;;;5010896;28;20250;-75
2023/03/05 07:22:17;;;;;;;0.10;0.10;;;2.00;99.90;230.40;231737.00;;;;5008033;28;20318;-74
2023/03/05 07:24:45;;;;;;;0.10;0.10;;;1.90;99.90;230.40;231737.00;;;;5007916;28;20223;-75
2023/03/05 07:27:15;;;;;;;0.10;0.10;;;2.00;99.90;230.40;231737.00;;;;5005097;28;20204;-74
2023/03/05 07:29:43;;;;;;;0.10;0.10;;;2.00;99.90;230.40;231737.00;;;;5010786;28;20223;-73
2023/03/05 07:32:11;;;;;;;0.10;0.10;;;2.10;99.90;230.40;231737.00;;;;5010686;28;20285;-73
2023/03/05 07:34:39;;;;;;;0.10;0.10;;;2.10;99.90;230.40;231737.00;;;;5001452;28;20211;-73
2023/03/05 07:37:07;;;;;;;0.10;0.10;;;2.10;99.90;230.40;231737.00;;;;5010398;28;20200;-73
2023/03/05 07:39:34;;;;;;;0.10;0.10;;;2.10;99.90;230.40;231737.00;;;;5010487;28;20269;-74
2023/03/05 07:42:03;;;;;;;0.10;0.10;;;2.10;99.90;230.40;231737.00;;;;5008219;28;20212;-73
2023/03/05 07:44:49;;;;;;;0.10;0.10;;;2.10;99.90;230.40;231737.00;;;;5024488;28;20222;-75
2023/03/05 07:47:17;;;;;;;0.20;0.20;;;2.10;99.90;230.40;231737.00;;;;5009049;28;20192;-73
2023/03/05 07:49:45;;;;;;;0.15;0.15;;;2.20;99.90;230.40;231737.00;;;;5010495;28;20238;-73
2023/03/05 07:52:13;;;;;;;0.10;0.10;;;2.30;99.90;230.40;231737.00;;;;5010839;28;20272;-73
2023/03/05 07:54:41;;;;;;;0.10;0.10;;;2.30;99.90;230.40;231737.00;;;;5019168;28;20604;-73
2023/03/05 07:57:12;;;;;;;0.10;0.10;;;2.40;99.90;230.40;231737.00;;;;5010887;28;20196;-73
2023/03/05 07:59:40;;;;;;;0.10;0.10;;;2.40;99.90;230.40;231737.00;;;;5011087;28;20223;-73
2023/03/05 08:02:11;;;;;;;0.10;0.10;;;2.40;99.90;230.40;231737.00;;;;5014522;28;20253;-73
2023/03/05 08:04:41;;;;;;;0.10;0.10;;;2.40;99.90;230.40;231737.00;;;;5014768;28;20685;-73
2023/03/05 08:07:09;;;;;;;0.10;0.10;;;2.40;99.90;230.40;231737.00;;;;5013871;28;20254;-73
2023/03/05 08:09:37;;;;;;;0.10;0.10;;;2.40;99.90;230.40;231737.00;;;;5012229;28;20225;-74
2023/03/05 08:12:05;;;;;;;0.10;0.10;;;2.40;99.90;230.40;231737.00;;;;5013210;28;20224;-73
2023/03/05 08:14:33;;;;;;;0.10;0.10;;;2.40;99.90;230.40;231737.00;;;;5015433;28;20733;-73
2023/03/05 08:17:01;;;;;;;0.10;0.10;;;2.40;99.90;230.40;231737.00;;;;5013891;28;20835;-73
2023/03/05 08:19:30;;;;;;;0.10;0.10;;;2.40;99.90;230.40;231737.00;;;;5013340;28;20234;-73
2023/03/05 08:21:58;;;;;;;0.10;0.10;;;2.40;99.90;230.40;231737.00;;;;5013937;28;20207;-75
2023/03/05 08:24:28;;;;;;;0.10;0.10;;;2.40;99.90;230.40;231737.00;;;;5014500;28;20204;-75
2023/03/05 08:26:57;;;;;;;0.10;0.10;;;2.40;99.90;230.40;231737.00;;;;5013148;28;20290;-73
2023/03/05 08:29:26;;;;;;;0.10;0.10;;;2.50;99.90;230.40;231737.00;;;;5008728;28;20243;-75
2023/03/05 08:31:55;;;;;;;0.10;0.10;;;2.40;99.90;230.40;231737.00;;;;5014051;28;20220;-73
2023/03/05 08:34:23;;;;;;;0.10;0.10;;;2.40;99.90;230.40;231737.00;;;;5014165;28;20207;-73
2023/03/05 08:36:52;;;;;;;0.10;0.10;;;2.40;99.90;230.40;231737.00;;;;5013122;28;20200;-74
2023/03/05 08:39:20;;;;;;;0.10;0.10;;;2.40;99.90;230.40;231737.00;;;;5013633;28;20266;-73
2023/03/05 08:41:48;;;;;;;0.10;0.10;;;2.40;99.90;230.40;231737.00;;;;5013236;28;20204;-73
2023/03/05 08:44:16;;;;;;;0.10;0.10;;;2.50;99.90;230.40;231737.00;;;;5013845;28;20246;-74
2023/03/05 08:46:44;;;;;;;0.10;0.10;;;2.50;99.90;230.40;231737.00;;;;5013911;28;20204;-72
2023/03/05 08:49:12;;;;;;;0.10;0.10;;;2.40;99.90;230.40;231737.00;;;;5011888;28;20234;-72
2023/03/05 08:51:40;;;;;;;0.10;0.10;;;2.40;99.90;230.40;231737.00;;;;5009771;28;20212;-73
2023/03/05 08:54:10;;;;;;;0.10;0.10;;;2.40;99.90;230.40;231737.00;;;;5013315;28;20262;-74
2023/03/05 08:56:39;;;;;;;0.20;0.20;;;2.40;99.90;230.40;231737.00;;;;5013226;28;20254;-74
2023/03/05 08:59:07;;;;;;;0.10;0.10;;;2.40;99.90;230.40;231737.00;;;;5010130;28;20220;-72
2023/03/05 09:01:35;;;;;;;0.10;0.10;;;2.40;99.90;230.40;231737.00;;;;5013286;28;20669;-71
2023/03/05 09:04:03;;;;;;;0.10;0.10;;;2.50;99.90;230.40;231737.00;;;;5013247;28;20584;-73
2023/03/05 09:06:33;;;;;;;0.10;0.10;;;2.40;99.90;230.40;231737.00;;;;5012910;28;20196;-74
2023/03/05 09:09:01;;;;;;;0.10;0.10;;;2.50;99.90;230.40;231737.00;;;;5013071;28;20326;-72
2023/03/05 09:11:34;;;;;;;0.10;0.10;;;2.50;99.90;230.40;231737.00;;;;5012503;28;20238;-72
2023/03/05 09:14:02;;;;;;;0.10;0.10;;;2.40;99.90;230.40;231737.00;;;;5013075;28;20196;-74
2023/03/05 09:16:31;;;;;;;0.10;0.10;;;2.40;99.90;230.40;231737.00;;;;5012073;28;20196;-73
2023/03/05 09:18:59;;;;;;;0.10;0.10;;;2.30;99.90;230.40;231737.00;;;;5013065;28;20230;-74
2023/03/05 09:21:27;;;;;;;0.10;0.10;;;2.40;99.90;230.40;231737.00;;;;5013713;28;20196;-73
2023/03/05 09:23:58;;;;;;;0.10;0.10;;;2.40;99.90;230.40;231737.00;;;;5012830;28;20742;-72
2023/03/05 09:26:26;;;;;;;0.10;0.10;;;2.50;99.90;230.40;231737.00;;;;5012920;28;20725;-72
2023/03/05 09:28:55;;;;;;;0.10;0.10;;;2.50;99.90;230.40;231737.00;;;;5012888;28;20622;-72
2023/03/05 09:31:23;;;;;;;0.10;0.10;;;2.60;99.90;230.40;231737.00;;;;5012757;28;20200;-74
2023/03/05 09:33:51;;;;;;;0.10;0.10;;;2.60;99.90;230.40;231737.00;;;;5012684;28;20246;-72
2023/03/05 09:36:24;;;;;;;0.10;0.10;;;2.60;99.90;230.40;231737.00;;;;5011945;28;20203;-73
2023/03/05 09:38:52;;;;;;;0.10;0.10;;;2.60;99.90;230.40;231737.00;;;;5008047;28;20200;-74
2023/03/05 09:41:36;;;;;;;0.10;0.10;;;2.60;99.90;230.40;231737.00;;;;5009579;28;20289;-72
2023/03/05 09:44:22;;;;;;;0.10;0.10;;;2.70;99.90;230.40;231737.00;;;;5012297;28;20203;-72
2023/03/05 09:46:54;;;;;;;0.10;0.10;;;2.80;99.90;230.40;231737.00;;;;5010780;28;20204;-72
2023/03/05 09:49:37;;;;;;;0.10;0.10;;;2.80;99.90;230.40;231737.00;;;;5008839;28;20251;-72
2023/03/05 09:52:28;;;;;;;0.10;0.10;;;2.90;99.90;230.40;231737.00;;;;5012269;28;20227;-72
2023/03/05 09:54:58;;;;;;;0.10;0.10;;;2.90;99.90;230.40;231737.00;;;;5008014;28;20283;-72
2023/03/05 09:57:36;;;;;;;0.10;0.10;;;3.00;99.90;230.40;231737.00;;;;5012259;28;20736;-72
2023/03/05 10:00:21;;;;;;;0.10;0.10;;;3.10;99.90;230.40;231737.00;;;;5009541;28;20226;-71
2023/03/05 10:02:57;;;;;;;0.10;0.10;;;3.10;99.90;230.40;231737.00;;;;5007626;28;20310;-72
2023/03/05 10:05:44;;;;;;;0.10;0.10;;;3.20;99.90;230.40;231737.00;;;;5007124;28;20564;-72
2023/03/05 10:08:14;;;;;;;0.10;0.10;;;3.20;99.90;230.40;231737.00;;;;5010619;28;20223;-72
2023/03/05 10:10:48;;;;;;;0.10;0.10;;;3.20;99.90;230.40;231737.00;;;;5008933;28;20695;-74
2023/03/05 10:13:24;;;;;;;0.10;0.10;;;3.10;99.90;230.40;231737.00;;;;5007182;28;20218;-73
2023/03/05 10:16:10;;;;;;;0.10;0.10;;;3.20;99.90;230.40;231737.00;;;;5011227;28;20199;-74
2023/03/05 10:18:53;;;;;;;0.10;0.10;;;3.10;99.90;230.40;231737.00;;;;5006304;28;20214;-74
2023/03/05 10:21:29;;;;;;;0.10;0.10;;;3.30;99.90;230.40;231737.00;;;;5009307;28;20196;-74
2023/03/05 10:24:11;;;;;;;0.10;0.10;;;3.20;99.90;230.40;231737.00;;;;5006449;28;20218;-72
2023/03/05 10:27:00;;;;;;;0.10;0.10;;;3.20;99.90;230.40;231737.00;;;;5009225;28;20199;-72
2023/03/05 10:30:03;;;;;;;0.10;0.10;;;3.20;99.90;230.40;231737.00;;;;5011529;28;20222;-72
2023/03/05 10:32:50;;;;;;;0.10;0.10;;;3.20;99.90;230.40;231737.00;;;;5009202;28;20215;-72
2023/03/05 10:35:42;;;;;;;0.10;0.10;;;3.20;99.90;230.40;231737.00;;;;5011374;28;20223;-72
2023/03/05 10:38:31;;;;;;;0.10;0.10;;;3.20;99.90;230.40;231737.00;;;;5005036;28;20203;-72
2023/03/05 10:41:08;;;;;;;0.10;0.10;;;3.10;99.90;230.40;231737.00;;;;5011719;28;20219;-71
2023/03/05 10:43:50;;;;;;;0.10;0.10;;;3.10;99.90;230.40;231737.00;;;;5005197;28;20215;-71
2023/03/05 10:46:27;;;;;;;0.10;0.10;;;3.00;99.90;230.40;231737.00;;;;5007065;28;20226;-73
2023/03/05 10:49:05;;;;;;;0.10;0.10;;;2.90;99.90;230.40;231737.00;;;;5008967;28;20226;-74
2023/03/05 10:51:38;;;;;;;0.10;0.10;;;3.00;99.90;230.40;231737.00;;;;5011519;28;20682;-72
2023/03/05 10:54:18;;;;;;;0.10;0.10;;;2.90;99.90;230.40;231737.00;;;;5010956;28;20227;-72
2023/03/05 10:56:47;;;;;;;0.10;0.10;;;2.90;99.90;230.40;231737.00;;;;5010933;28;20203;-72
2023/03/05 10:59:15;;;;;;;0.10;0.10;;;2.80;99.90;230.40;231737.00;;;;5010295;28;20220;-72
2023/03/05 11:02:07;;;;;;;0.10;0.10;;;2.90;99.90;230.40;231737.00;;;;5007093;28;20192;-72